sensor_id;sensor_type;location;lat;lon;timestamp;P1;durP1;ratioP1;P2;durP2;ratioP2
20114;SDS011;10218;42.874;25.320;2023-06-04T00:02:20;15.83;;;9.97;;
20114;SDS011;10218;42.874;25.320;2023-06-04T00:04:48;14.23;;;10.70;;
20114;SDS011;10218;42.874;25.320;2023-06-04T00:07:15;15.50;;;10.60;;
20114;SDS011;10218;42.874;25.320;2023-06-04T00:09:42;15.13;;;10.70;;
20114;SDS011;10218;42.874;25.320;2023-06-04T00:12:10;13.53;;;11.07;;
20114;SDS011;10218;42.874;25.320;2023-06-04T00:14:38;15.53;;;12.03;;
20114;SDS011;10218;42.874;25.320;2023-06-04T00:17:05;17.03;;;11.83;;
20114;SDS011;10218;42.874;25.320;2023-06-04T00:19:32;15.87;;;11.53;;
20114;SDS011;10218;42.874;25.320;2023-06-04T00:22:00;14.87;;;11.20;;
20114;SDS011;10218;42.874;25.320;2023-06-04T00:24:27;17.53;;;11.60;;
20114;SDS011;10218;42.874;25.320;2023-06-04T00:26:54;20.57;;;10.90;;
20114;SDS011;10218;42.874;25.320;2023-06-04T00:29:22;14.87;;;11.07;;
20114;SDS011;10218;42.874;25.320;2023-06-04T00:31:49;15.73;;;11.17;;
20114;SDS011;10218;42.874;25.320;2023-06-04T00:34:17;15.03;;;11.20;;
20114;SDS011;10218;42.874;25.320;2023-06-04T00:36:44;18.73;;;11.23;;
20114;SDS011;10218;42.874;25.320;2023-06-04T00:39:12;17.43;;;11.30;;
20114;SDS011;10218;42.874;25.320;2023-06-04T00:41:39;17.07;;;11.93;;
20114;SDS011;10218;42.874;25.320;2023-06-04T00:44:06;16.73;;;12.20;;
20114;SDS011;10218;42.874;25.320;2023-06-04T00:46:33;22.13;;;12.70;;
20114;SDS011;10218;42.874;25.320;2023-06-04T00:49:03;17.77;;;11.70;;
20114;SDS011;10218;42.874;25.320;2023-06-04T00:51:32;18.67;;;12.33;;
20114;SDS011;10218;42.874;25.320;2023-06-04T00:53:59;18.17;;;12.30;;
20114;SDS011;10218;42.874;25.320;2023-06-04T00:56:36;22.63;;;12.93;;
20114;SDS011;10218;42.874;25.320;2023-06-04T00:59:04;18.87;;;13.47;;
20114;SDS011;10218;42.874;25.320;2023-06-04T01:04:16;19.60;;;13.73;;
20114;SDS011;10218;42.874;25.320;2023-06-04T01:06:57;22.77;;;14.20;;
20114;SDS011;10218;42.874;25.320;2023-06-04T01:09:28;21.83;;;14.27;;
20114;SDS011;10218;42.874;25.320;2023-06-04T01:11:57;17.70;;;13.27;;
20114;SDS011;10218;42.874;25.320;2023-06-04T01:14:24;19.23;;;13.77;;
20114;SDS011;10218;42.874;25.320;2023-06-04T01:16:55;16.80;;;13.23;;
20114;SDS011;10218;42.874;25.320;2023-06-04T01:22:23;14.17;;;11.37;;
20114;SDS011;10218;42.874;25.320;2023-06-04T01:25:02;16.47;;;10.67;;
20114;SDS011;10218;42.874;25.320;2023-06-04T01:27:31;16.07;;;10.97;;
20114;SDS011;10218;42.874;25.320;2023-06-04T01:29:59;14.23;;;10.60;;
20114;SDS011;10218;42.874;25.320;2023-06-04T01:32:27;16.40;;;11.20;;
20114;SDS011;10218;42.874;25.320;2023-06-04T01:34:54;12.60;;;10.23;;
20114;SDS011;10218;42.874;25.320;2023-06-04T01:37:22;14.53;;;10.10;;
20114;SDS011;10218;42.874;25.320;2023-06-04T01:39:50;16.03;;;10.70;;
20114;SDS011;10218;42.874;25.320;2023-06-04T01:42:17;17.67;;;10.80;;
20114;SDS011;10218;42.874;25.320;2023-06-04T01:44:44;19.17;;;12.10;;
20114;SDS011;10218;42.874;25.320;2023-06-04T01:47:13;13.23;;;11.00;;
20114;SDS011;10218;42.874;25.320;2023-06-04T01:49:40;16.73;;;10.53;;
20114;SDS011;10218;42.874;25.320;2023-06-04T01:52:08;14.00;;;10.67;;
20114;SDS011;10218;42.874;25.320;2023-06-04T01:54:35;15.37;;;11.27;;
20114;SDS011;10218;42.874;25.320;2023-06-04T01:57:02;16.33;;;10.63;;
20114;SDS011;10218;42.874;25.320;2023-06-04T01:59:29;13.80;;;9.87;;
20114;SDS011;10218;42.874;25.320;2023-06-04T02:01:58;15.27;;;10.53;;
20114;SDS011;10218;42.874;25.320;2023-06-04T02:04:25;13.90;;;10.30;;
20114;SDS011;10218;42.874;25.320;2023-06-04T02:06:52;11.63;;;10.37;;
20114;SDS011;10218;42.874;25.320;2023-06-04T02:09:20;18.53;;;10.80;;
20114;SDS011;10218;42.874;25.320;2023-06-04T02:11:47;17.43;;;10.70;;
20114;SDS011;10218;42.874;25.320;2023-06-04T02:14:14;16.60;;;11.40;;
20114;SDS011;10218;42.874;25.320;2023-06-04T02:16:41;14.73;;;11.50;;
20114;SDS011;10218;42.874;25.320;2023-06-04T02:19:08;15.97;;;10.77;;
20114;SDS011;10218;42.874;25.320;2023-06-04T02:21:39;19.10;;;10.30;;
20114;SDS011;10218;42.874;25.320;2023-06-04T02:24:06;13.87;;;10.50;;
20114;SDS011;10218;42.874;25.320;2023-06-04T02:26:33;13.67;;;10.63;;
20114;SDS011;10218;42.874;25.320;2023-06-04T02:29:00;13.90;;;10.87;;
20114;SDS011;10218;42.874;25.320;2023-06-04T02:31:28;17.83;;;10.80;;
20114;SDS011;10218;42.874;25.320;2023-06-04T02:33:55;13.50;;;9.80;;
20114;SDS011;10218;42.874;25.320;2023-06-04T02:36:23;14.23;;;9.70;;
20114;SDS011;10218;42.874;25.320;2023-06-04T02:38:50;13.23;;;10.50;;
20114;SDS011;10218;42.874;25.320;2023-06-04T02:41:17;14.47;;;10.50;;
20114;SDS011;10218;42.874;25.320;2023-06-04T02:43:45;17.40;;;11.87;;
20114;SDS011;10218;42.874;25.320;2023-06-04T02:46:12;19.43;;;12.87;;
20114;SDS011;10218;42.874;25.320;2023-06-04T02:48:39;15.97;;;13.30;;
20114;SDS011;10218;42.874;25.320;2023-06-04T02:51:06;18.33;;;13.77;;
20114;SDS011;10218;42.874;25.320;2023-06-04T02:53:36;15.80;;;12.40;;
20114;SDS011;10218;42.874;25.320;2023-06-04T02:56:03;17.37;;;12.63;;
20114;SDS011;10218;42.874;25.320;2023-06-04T02:58:31;13.90;;;12.40;;
20114;SDS011;10218;42.874;25.320;2023-06-04T03:00:58;12.57;;;10.53;;
20114;SDS011;10218;42.874;25.320;2023-06-04T03:03:25;11.47;;;10.13;;
20114;SDS011;10218;42.874;25.320;2023-06-04T03:05:53;13.97;;;9.60;;
20114;SDS011;10218;42.874;25.320;2023-06-04T03:08:20;11.67;;;9.63;;
20114;SDS011;10218;42.874;25.320;2023-06-04T03:10:47;14.83;;;10.07;;
20114;SDS011;10218;42.874;25.320;2023-06-04T03:13:14;14.00;;;10.03;;
20114;SDS011;10218;42.874;25.320;2023-06-04T03:15:42;13.37;;;10.07;;
20114;SDS011;10218;42.874;25.320;2023-06-04T03:18:09;15.17;;;9.33;;
20114;SDS011;10218;42.874;25.320;2023-06-04T03:20:36;13.10;;;9.50;;
20114;SDS011;10218;42.874;25.320;2023-06-04T03:23:05;12.97;;;9.53;;
20114;SDS011;10218;42.874;25.320;2023-06-04T03:25:32;12.87;;;9.33;;
20114;SDS011;10218;42.874;25.320;2023-06-04T03:27:59;13.30;;;9.33;;
20114;SDS011;10218;42.874;25.320;2023-06-04T03:30:27;16.60;;;9.73;;
20114;SDS011;10218;42.874;25.320;2023-06-04T03:32:54;13.43;;;9.37;;
20114;SDS011;10218;42.874;25.320;2023-06-04T03:35:22;11.27;;;9.43;;
20114;SDS011;10218;42.874;25.320;2023-06-04T03:37:49;11.40;;;9.47;;
20114;SDS011;10218;42.874;25.320;2023-06-04T03:40:16;19.30;;;9.93;;
20114;SDS011;10218;42.874;25.320;2023-06-04T03:42:43;13.23;;;9.83;;
20114;SDS011;10218;42.874;25.320;2023-06-04T03:45:12;11.37;;;9.83;;
20114;SDS011;10218;42.874;25.320;2023-06-04T03:47:39;15.07;;;10.60;;
20114;SDS011;10218;42.874;25.320;2023-06-04T03:50:07;13.33;;;10.73;;
20114;SDS011;10218;42.874;25.320;2023-06-04T03:52:35;13.63;;;10.73;;
20114;SDS011;10218;42.874;25.320;2023-06-04T03:55:03;15.50;;;11.60;;
20114;SDS011;10218;42.874;25.320;2023-06-04T03:57:30;15.00;;;11.30;;
20114;SDS011;10218;42.874;25.320;2023-06-04T03:59:59;15.20;;;10.70;;
20114;SDS011;10218;42.874;25.320;2023-06-04T04:02:41;14.13;;;10.90;;
20114;SDS011;10218;42.874;25.320;2023-06-04T04:05:11;14.70;;;11.40;;
20114;SDS011;10218;42.874;25.320;2023-06-04T04:07:39;15.87;;;10.67;;
20114;SDS011;10218;42.874;25.320;2023-06-04T04:10:06;12.30;;;10.97;;
20114;SDS011;10218;42.874;25.320;2023-06-04T04:12:34;14.37;;;11.27;;
20114;SDS011;10218;42.874;25.320;2023-06-04T04:15:01;16.77;;;11.67;;
20114;SDS011;10218;42.874;25.320;2023-06-04T04:17:29;19.13;;;11.53;;
20114;SDS011;10218;42.874;25.320;2023-06-04T04:19:59;13.87;;;11.27;;
20114;SDS011;10218;42.874;25.320;2023-06-04T04:22:26;16.37;;;10.97;;
20114;SDS011;10218;42.874;25.320;2023-06-04T04:24:54;12.80;;;10.73;;
20114;SDS011;10218;42.874;25.320;2023-06-04T04:27:21;16.20;;;10.97;;
20114;SDS011;10218;42.874;25.320;2023-06-04T04:29:49;14.10;;;11.20;;
20114;SDS011;10218;42.874;25.320;2023-06-04T04:32:17;14.60;;;10.90;;
20114;SDS011;10218;42.874;25.320;2023-06-04T04:34:52;13.80;;;10.77;;
20114;SDS011;10218;42.874;25.320;2023-06-04T04:37:21;14.73;;;10.37;;
20114;SDS011;10218;42.874;25.320;2023-06-04T04:39:49;15.73;;;11.33;;
20114;SDS011;10218;42.874;25.320;2023-06-04T04:42:19;17.20;;;11.90;;
20114;SDS011;10218;42.874;25.320;2023-06-04T04:44:47;14.23;;;11.53;;
20114;SDS011;10218;42.874;25.320;2023-06-04T04:47:16;14.70;;;11.57;;
20114;SDS011;10218;42.874;25.320;2023-06-04T04:49:43;13.57;;;11.03;;
20114;SDS011;10218;42.874;25.320;2023-06-04T04:52:10;15.13;;;10.57;;
20114;SDS011;10218;42.874;25.320;2023-06-04T04:54:38;13.60;;;10.67;;
20114;SDS011;10218;42.874;25.320;2023-06-04T04:57:05;15.80;;;10.13;;
20114;SDS011;10218;42.874;25.320;2023-06-04T04:59:38;17.13;;;10.87;;
20114;SDS011;10218;42.874;25.320;2023-06-04T05:02:05;11.90;;;10.53;;
20114;SDS011;10218;42.874;25.320;2023-06-04T05:04:33;14.13;;;10.80;;
20114;SDS011;10218;42.874;25.320;2023-06-04T05:07:01;11.87;;;10.40;;
20114;SDS011;10218;42.874;25.320;2023-06-04T05:09:28;14.63;;;10.30;;
20114;SDS011;10218;42.874;25.320;2023-06-04T05:11:55;13.50;;;10.30;;
20114;SDS011;10218;42.874;25.320;2023-06-04T05:14:23;13.70;;;10.57;;
20114;SDS011;10218;42.874;25.320;2023-06-04T05:16:50;14.43;;;10.57;;
20114;SDS011;10218;42.874;25.320;2023-06-04T05:19:19;11.67;;;9.93;;
20114;SDS011;10218;42.874;25.320;2023-06-04T05:21:46;15.90;;;9.70;;
20114;SDS011;10218;42.874;25.320;2023-06-04T05:24:15;11.77;;;9.60;;
20114;SDS011;10218;42.874;25.320;2023-06-04T05:26:43;13.77;;;10.20;;
20114;SDS011;10218;42.874;25.320;2023-06-04T05:29:11;12.93;;;10.40;;
20114;SDS011;10218;42.874;25.320;2023-06-04T05:31:39;15.93;;;10.20;;
20114;SDS011;10218;42.874;25.320;2023-06-04T05:34:06;17.43;;;11.03;;
20114;SDS011;10218;42.874;25.320;2023-06-04T05:36:35;12.40;;;10.50;;
20114;SDS011;10218;42.874;25.320;2023-06-04T05:39:02;21.17;;;10.90;;
20114;SDS011;10218;42.874;25.320;2023-06-04T05:41:30;15.83;;;10.37;;
20114;SDS011;10218;42.874;25.320;2023-06-04T05:43:57;13.37;;;10.77;;
20114;SDS011;10218;42.874;25.320;2023-06-04T05:46:24;14.47;;;10.93;;
20114;SDS011;10218;42.874;25.320;2023-06-04T05:48:52;16.80;;;11.47;;
20114;SDS011;10218;42.874;25.320;2023-06-04T05:51:20;19.60;;;10.40;;
20114;SDS011;10218;42.874;25.320;2023-06-04T05:53:48;15.07;;;11.03;;
20114;SDS011;10218;42.874;25.320;2023-06-04T05:56:16;20.07;;;11.60;;
20114;SDS011;10218;42.874;25.320;2023-06-04T05:58:50;13.80;;;10.80;;
20114;SDS011;10218;42.874;25.320;2023-06-04T06:01:19;19.40;;;11.10;;
20114;SDS011;10218;42.874;25.320;2023-06-04T06:03:47;14.87;;;11.17;;
20114;SDS011;10218;42.874;25.320;2023-06-04T06:06:14;15.03;;;11.23;;
20114;SDS011;10218;42.874;25.320;2023-06-04T06:08:41;19.23;;;11.20;;
20114;SDS011;10218;42.874;25.320;2023-06-04T06:11:08;19.13;;;12.67;;
20114;SDS011;10218;42.874;25.320;2023-06-04T06:13:36;17.47;;;11.70;;
20114;SDS011;10218;42.874;25.320;2023-06-04T06:16:03;16.87;;;11.17;;
20114;SDS011;10218;42.874;25.320;2023-06-04T06:18:31;17.23;;;11.07;;
20114;SDS011;10218;42.874;25.320;2023-06-04T06:20:59;13.80;;;10.63;;
20114;SDS011;10218;42.874;25.320;2023-06-04T06:23:26;16.53;;;10.53;;
20114;SDS011;10218;42.874;25.320;2023-06-04T06:25:54;21.83;;;11.23;;
20114;SDS011;10218;42.874;25.320;2023-06-04T06:28:22;18.63;;;10.23;;
20114;SDS011;10218;42.874;25.320;2023-06-04T06:30:49;15.03;;;10.47;;
20114;SDS011;10218;42.874;25.320;2023-06-04T06:33:17;20.77;;;10.83;;
20114;SDS011;10218;42.874;25.320;2023-06-04T06:35:49;13.20;;;10.13;;
20114;SDS011;10218;42.874;25.320;2023-06-04T06:38:16;15.03;;;9.90;;
20114;SDS011;10218;42.874;25.320;2023-06-04T06:40:44;16.07;;;10.57;;
20114;SDS011;10218;42.874;25.320;2023-06-04T06:43:11;15.83;;;10.93;;
20114;SDS011;10218;42.874;25.320;2023-06-04T06:45:38;15.87;;;9.93;;
20114;SDS011;10218;42.874;25.320;2023-06-04T06:48:05;22.90;;;10.53;;
20114;SDS011;10218;42.874;25.320;2023-06-04T06:50:32;17.17;;;10.00;;
20114;SDS011;10218;42.874;25.320;2023-06-04T06:53:02;16.13;;;10.67;;
20114;SDS011;10218;42.874;25.320;2023-06-04T06:55:29;20.10;;;10.80;;
20114;SDS011;10218;42.874;25.320;2023-06-04T06:57:57;19.47;;;11.47;;
20114;SDS011;10218;42.874;25.320;2023-06-04T07:00:28;19.87;;;10.73;;
20114;SDS011;10218;42.874;25.320;2023-06-04T07:02:55;15.23;;;10.20;;
20114;SDS011;10218;42.874;25.320;2023-06-04T07:05:22;15.37;;;9.83;;
20114;SDS011;10218;42.874;25.320;2023-06-04T07:07:50;15.13;;;9.67;;
20114;SDS011;10218;42.874;25.320;2023-06-04T07:10:17;16.07;;;10.17;;
20114;SDS011;10218;42.874;25.320;2023-06-04T07:12:44;15.90;;;9.83;;
20114;SDS011;10218;42.874;25.320;2023-06-04T07:15:11;12.67;;;9.70;;
20114;SDS011;10218;42.874;25.320;2023-06-04T07:17:38;13.13;;;9.27;;
20114;SDS011;10218;42.874;25.320;2023-06-04T07:20:06;14.67;;;8.80;;
20114;SDS011;10218;42.874;25.320;2023-06-04T07:22:35;17.50;;;9.17;;
20114;SDS011;10218;42.874;25.320;2023-06-04T07:25:02;13.43;;;9.87;;
20114;SDS011;10218;42.874;25.320;2023-06-04T07:27:29;11.13;;;8.00;;
20114;SDS011;10218;42.874;25.320;2023-06-04T07:29:57;12.50;;;8.37;;
20114;SDS011;10218;42.874;25.320;2023-06-04T07:32:23;13.07;;;8.20;;
20114;SDS011;10218;42.874;25.320;2023-06-04T07:34:51;11.57;;;7.90;;
20114;SDS011;10218;42.874;25.320;2023-06-04T07:37:18;10.77;;;7.83;;
20114;SDS011;10218;42.874;25.320;2023-06-04T07:39:45;13.83;;;8.13;;
20114;SDS011;10218;42.874;25.320;2023-06-04T07:42:13;10.07;;;7.70;;
20114;SDS011;10218;42.874;25.320;2023-06-04T07:44:40;10.50;;;7.30;;
20114;SDS011;10218;42.874;25.320;2023-06-04T07:47:07;11.27;;;7.80;;
20114;SDS011;10218;42.874;25.320;2023-06-04T07:49:34;11.67;;;6.93;;
20114;SDS011;10218;42.874;25.320;2023-06-04T07:52:03;13.60;;;7.30;;
20114;SDS011;10218;42.874;25.320;2023-06-04T07:54:30;14.07;;;7.37;;
20114;SDS011;10218;42.874;25.320;2023-06-04T07:56:58;11.83;;;7.03;;
20114;SDS011;10218;42.874;25.320;2023-06-04T07:59:25;13.73;;;6.83;;
20114;SDS011;10218;42.874;25.320;2023-06-04T08:01:52;8.87;;;6.80;;
20114;SDS011;10218;42.874;25.320;2023-06-04T08:04:20;10.77;;;6.83;;
20114;SDS011;10218;42.874;25.320;2023-06-04T08:06:47;8.00;;;6.47;;
20114;SDS011;10218;42.874;25.320;2023-06-04T08:09:14;7.43;;;6.10;;
20114;SDS011;10218;42.874;25.320;2023-06-04T08:11:42;8.97;;;6.43;;
20114;SDS011;10218;42.874;25.320;2023-06-04T08:14:12;8.90;;;6.73;;
20114;SDS011;10218;42.874;25.320;2023-06-04T08:16:39;9.43;;;6.77;;
20114;SDS011;10218;42.874;25.320;2023-06-04T08:19:07;9.27;;;6.40;;
20114;SDS011;10218;42.874;25.320;2023-06-04T08:21:35;10.80;;;6.83;;
20114;SDS011;10218;42.874;25.320;2023-06-04T08:24:02;12.50;;;6.30;;
20114;SDS011;10218;42.874;25.320;2023-06-04T08:26:30;12.23;;;6.87;;
20114;SDS011;10218;42.874;25.320;2023-06-04T08:28:57;12.70;;;7.17;;
20114;SDS011;10218;42.874;25.320;2023-06-04T08:31:24;11.60;;;7.03;;
20114;SDS011;10218;42.874;25.320;2023-06-04T08:33:51;11.07;;;7.30;;
20114;SDS011;10218;42.874;25.320;2023-06-04T08:36:18;11.73;;;7.00;;
20114;SDS011;10218;42.874;25.320;2023-06-04T08:38:45;14.17;;;6.80;;
20114;SDS011;10218;42.874;25.320;2023-06-04T08:44:04;12.87;;;7.10;;
20114;SDS011;10218;42.874;25.320;2023-06-04T08:46:33;11.20;;;7.17;;
20114;SDS011;10218;42.874;25.320;2023-06-04T08:49:07;8.63;;;6.50;;
20114;SDS011;10218;42.874;25.320;2023-06-04T08:51:36;14.40;;;7.23;;
20114;SDS011;10218;42.874;25.320;2023-06-04T08:54:05;14.23;;;6.83;;
20114;SDS011;10218;42.874;25.320;2023-06-04T08:56:34;13.47;;;7.70;;
20114;SDS011;10218;42.874;25.320;2023-06-04T08:59:03;15.30;;;7.67;;
20114;SDS011;10218;42.874;25.320;2023-06-04T09:01:33;10.73;;;6.90;;
20114;SDS011;10218;42.874;25.320;2023-06-04T09:04:04;9.83;;;7.20;;
20114;SDS011;10218;42.874;25.320;2023-06-04T09:06:34;12.67;;;7.20;;
20114;SDS011;10218;42.874;25.320;2023-06-04T09:09:04;7.93;;;6.43;;
20114;SDS011;10218;42.874;25.320;2023-06-04T09:11:38;9.50;;;7.10;;
20114;SDS011;10218;42.874;25.320;2023-06-04T09:14:13;8.40;;;6.77;;
20114;SDS011;10218;42.874;25.320;2023-06-04T09:16:43;8.70;;;6.47;;
20114;SDS011;10218;42.874;25.320;2023-06-04T09:19:11;10.03;;;6.33;;
20114;SDS011;10218;42.874;25.320;2023-06-04T09:21:48;13.03;;;6.80;;
20114;SDS011;10218;42.874;25.320;2023-06-04T09:24:19;9.20;;;6.97;;
20114;SDS011;10218;42.874;25.320;2023-06-04T09:26:48;11.63;;;6.90;;
20114;SDS011;10218;42.874;25.320;2023-06-04T09:29:16;12.03;;;7.37;;
20114;SDS011;10218;42.874;25.320;2023-06-04T09:31:45;15.47;;;7.10;;
20114;SDS011;10218;42.874;25.320;2023-06-04T09:34:30;12.20;;;7.33;;
20114;SDS011;10218;42.874;25.320;2023-06-04T09:36:58;10.47;;;6.70;;
20114;SDS011;10218;42.874;25.320;2023-06-04T09:39:25;12.80;;;6.93;;
20114;SDS011;10218;42.874;25.320;2023-06-04T09:42:00;7.87;;;6.13;;
20114;SDS011;10218;42.874;25.320;2023-06-04T09:44:29;8.07;;;6.50;;
20114;SDS011;10218;42.874;25.320;2023-06-04T09:46:56;13.37;;;6.70;;
20114;SDS011;10218;42.874;25.320;2023-06-04T09:49:24;12.27;;;6.33;;
20114;SDS011;10218;42.874;25.320;2023-06-04T09:51:51;10.03;;;6.40;;
20114;SDS011;10218;42.874;25.320;2023-06-04T09:54:18;9.93;;;6.57;;
20114;SDS011;10218;42.874;25.320;2023-06-04T09:56:45;8.83;;;6.33;;
20114;SDS011;10218;42.874;25.320;2023-06-04T09:59:13;9.63;;;6.80;;
20114;SDS011;10218;42.874;25.320;2023-06-04T10:01:41;10.60;;;5.90;;
20114;SDS011;10218;42.874;25.320;2023-06-04T10:04:08;11.17;;;5.87;;
20114;SDS011;10218;42.874;25.320;2023-06-04T10:06:38;11.43;;;6.60;;
20114;SDS011;10218;42.874;25.320;2023-06-04T10:09:08;10.33;;;6.13;;
20114;SDS011;10218;42.874;25.320;2023-06-04T10:11:44;11.47;;;6.30;;
20114;SDS011;10218;42.874;25.320;2023-06-04T10:14:38;10.20;;;7.73;;
20114;SDS011;10218;42.874;25.320;2023-06-04T10:17:09;10.53;;;8.00;;
20114;SDS011;10218;42.874;25.320;2023-06-04T10:19:39;13.70;;;9.87;;
20114;SDS011;10218;42.874;25.320;2023-06-04T10:22:10;13.90;;;10.83;;
20114;SDS011;10218;42.874;25.320;2023-06-04T10:24:38;11.87;;;9.87;;
20114;SDS011;10218;42.874;25.320;2023-06-04T10:27:05;21.90;;;15.73;;
20114;SDS011;10218;42.874;25.320;2023-06-04T10:29:37;21.33;;;14.30;;
20114;SDS011;10218;42.874;25.320;2023-06-04T10:32:04;14.70;;;11.63;;
20114;SDS011;10218;42.874;25.320;2023-06-04T10:34:32;20.30;;;13.73;;
20114;SDS011;10218;42.874;25.320;2023-06-04T10:37:00;26.80;;;18.30;;
20114;SDS011;10218;42.874;25.320;2023-06-04T10:39:27;19.93;;;13.17;;
20114;SDS011;10218;42.874;25.320;2023-06-04T10:42:03;23.53;;;15.80;;
20114;SDS011;10218;42.874;25.320;2023-06-04T10:44:32;21.57;;;13.43;;
20114;SDS011;10218;42.874;25.320;2023-06-04T10:47:45;15.87;;;12.77;;
20114;SDS011;10218;42.874;25.320;2023-06-04T10:50:08;18.43;;;13.43;;
20114;SDS011;10218;42.874;25.320;2023-06-04T10:52:52;17.67;;;13.97;;
20114;SDS011;10218;42.874;25.320;2023-06-04T10:55:21;22.57;;;16.73;;
20114;SDS011;10218;42.874;25.320;2023-06-04T10:58:06;15.77;;;12.30;;
20114;SDS011;10218;42.874;25.320;2023-06-04T11:00:35;15.70;;;11.67;;
20114;SDS011;10218;42.874;25.320;2023-06-04T11:03:09;16.27;;;12.53;;
20114;SDS011;10218;42.874;25.320;2023-06-04T11:05:44;19.50;;;12.97;;
20114;SDS011;10218;42.874;25.320;2023-06-04T11:08:13;17.27;;;13.17;;
20114;SDS011;10218;42.874;25.320;2023-06-04T11:10:44;17.83;;;12.47;;
20114;SDS011;10218;42.874;25.320;2023-06-04T11:13:11;17.90;;;13.50;;
20114;SDS011;10218;42.874;25.320;2023-06-04T11:15:46;17.43;;;12.63;;
20114;SDS011;10218;42.874;25.320;2023-06-04T11:18:19;17.37;;;12.90;;
20114;SDS011;10218;42.874;25.320;2023-06-04T11:20:48;17.47;;;12.60;;
20114;SDS011;10218;42.874;25.320;2023-06-04T11:23:25;17.20;;;12.60;;
20114;SDS011;10218;42.874;25.320;2023-06-04T11:25:52;17.10;;;12.57;;
20114;SDS011;10218;42.874;25.320;2023-06-04T11:28:20;16.60;;;12.10;;
20114;SDS011;10218;42.874;25.320;2023-06-04T11:31:01;14.97;;;11.20;;
20114;SDS011;10218;42.874;25.320;2023-06-04T11:33:30;15.47;;;10.90;;
20114;SDS011;10218;42.874;25.320;2023-06-04T11:35:57;13.60;;;11.40;;
20114;SDS011;10218;42.874;25.320;2023-06-04T11:38:24;14.83;;;11.73;;
20114;SDS011;10218;42.874;25.320;2023-06-04T11:40:56;20.23;;;13.37;;
20114;SDS011;10218;42.874;25.320;2023-06-04T11:43:24;14.87;;;11.17;;
20114;SDS011;10218;42.874;25.320;2023-06-04T11:45:52;15.80;;;10.60;;
20114;SDS011;10218;42.874;25.320;2023-06-04T11:48:20;12.10;;;8.53;;
20114;SDS011;10218;42.874;25.320;2023-06-04T11:50:47;9.43;;;8.43;;
20114;SDS011;10218;42.874;25.320;2023-06-04T11:53:14;9.07;;;8.00;;
20114;SDS011;10218;42.874;25.320;2023-06-04T11:55:41;10.50;;;8.80;;
20114;SDS011;10218;42.874;25.320;2023-06-04T11:58:09;9.93;;;8.40;;
20114;SDS011;10218;42.874;25.320;2023-06-04T12:00:36;9.37;;;8.10;;
20114;SDS011;10218;42.874;25.320;2023-06-04T12:03:04;10.93;;;8.37;;
20114;SDS011;10218;42.874;25.320;2023-06-04T12:05:31;13.90;;;9.17;;
20114;SDS011;10218;42.874;25.320;2023-06-04T12:08:06;17.97;;;10.37;;
20114;SDS011;10218;42.874;25.320;2023-06-04T12:13:06;14.23;;;8.63;;
20114;SDS011;10218;42.874;25.320;2023-06-04T12:15:34;13.17;;;9.00;;
20114;SDS011;10218;42.874;25.320;2023-06-04T12:18:02;11.03;;;8.60;;
20114;SDS011;10218;42.874;25.320;2023-06-04T12:23:04;13.60;;;9.27;;
20114;SDS011;10218;42.874;25.320;2023-06-04T12:25:34;10.67;;;7.87;;
20114;SDS011;10218;42.874;25.320;2023-06-04T12:28:04;9.60;;;8.17;;
20114;SDS011;10218;42.874;25.320;2023-06-04T12:30:38;13.43;;;8.70;;
20114;SDS011;10218;42.874;25.320;2023-06-04T12:33:06;12.37;;;8.47;;
20114;SDS011;10218;42.874;25.320;2023-06-04T12:35:34;13.87;;;8.20;;
20114;SDS011;10218;42.874;25.320;2023-06-04T12:38:04;12.43;;;9.80;;
20114;SDS011;10218;42.874;25.320;2023-06-04T12:40:32;12.00;;;9.67;;
20114;SDS011;10218;42.874;25.320;2023-06-04T12:42:59;13.90;;;9.57;;
20114;SDS011;10218;42.874;25.320;2023-06-04T12:45:26;13.07;;;9.87;;
20114;SDS011;10218;42.874;25.320;2023-06-04T12:47:54;15.10;;;9.30;;
20114;SDS011;10218;42.874;25.320;2023-06-04T12:50:21;12.43;;;9.20;;
20114;SDS011;10218;42.874;25.320;2023-06-04T12:52:48;12.73;;;9.10;;
20114;SDS011;10218;42.874;25.320;2023-06-04T12:55:16;13.53;;;9.07;;
20114;SDS011;10218;42.874;25.320;2023-06-04T12:57:43;13.97;;;8.63;;
20114;SDS011;10218;42.874;25.320;2023-06-04T13:00:12;9.23;;;8.20;;
20114;SDS011;10218;42.874;25.320;2023-06-04T13:02:42;11.23;;;8.70;;
20114;SDS011;10218;42.874;25.320;2023-06-04T13:05:09;12.57;;;8.33;;
20114;SDS011;10218;42.874;25.320;2023-06-04T13:07:36;10.93;;;8.00;;
20114;SDS011;10218;42.874;25.320;2023-06-04T13:10:04;9.63;;;7.87;;
20114;SDS011;10218;42.874;25.320;2023-06-04T13:12:31;9.07;;;6.93;;
20114;SDS011;10218;42.874;25.320;2023-06-04T13:14:58;10.10;;;7.47;;
20114;SDS011;10218;42.874;25.320;2023-06-04T13:17:25;8.87;;;7.17;;
20114;SDS011;10218;42.874;25.320;2023-06-04T13:19:52;9.03;;;7.23;;
20114;SDS011;10218;42.874;25.320;2023-06-04T13:22:19;10.37;;;7.00;;
20114;SDS011;10218;42.874;25.320;2023-06-04T13:24:47;8.77;;;7.10;;
20114;SDS011;10218;42.874;25.320;2023-06-04T13:27:14;10.33;;;7.23;;
20114;SDS011;10218;42.874;25.320;2023-06-04T13:29:41;9.60;;;6.93;;
20114;SDS011;10218;42.874;25.320;2023-06-04T13:32:09;8.57;;;6.97;;
20114;SDS011;10218;42.874;25.320;2023-06-04T13:34:37;9.40;;;7.30;;
20114;SDS011;10218;42.874;25.320;2023-06-04T13:37:04;9.23;;;6.87;;
20114;SDS011;10218;42.874;25.320;2023-06-04T13:39:32;7.97;;;6.77;;
20114;SDS011;10218;42.874;25.320;2023-06-04T13:41:59;8.13;;;6.33;;
20114;SDS011;10218;42.874;25.320;2023-06-04T13:44:26;8.20;;;6.07;;
20114;SDS011;10218;42.874;25.320;2023-06-04T13:46:57;8.50;;;6.20;;
20114;SDS011;10218;42.874;25.320;2023-06-04T13:49:25;10.50;;;6.63;;
20114;SDS011;10218;42.874;25.320;2023-06-04T13:51:52;9.40;;;6.80;;
20114;SDS011;10218;42.874;25.320;2023-06-04T13:54:19;9.50;;;7.53;;
20114;SDS011;10218;42.874;25.320;2023-06-04T13:56:47;10.23;;;7.53;;
20114;SDS011;10218;42.874;25.320;2023-06-04T13:59:15;9.17;;;7.40;;
20114;SDS011;10218;42.874;25.320;2023-06-04T14:01:42;11.43;;;8.93;;
20114;SDS011;10218;42.874;25.320;2023-06-04T14:04:10;14.03;;;9.03;;
20114;SDS011;10218;42.874;25.320;2023-06-04T14:06:38;13.17;;;8.77;;
20114;SDS011;10218;42.874;25.320;2023-06-04T14:09:05;11.70;;;9.07;;
20114;SDS011;10218;42.874;25.320;2023-06-04T14:11:33;14.63;;;10.33;;
20114;SDS011;10218;42.874;25.320;2023-06-04T14:14:01;13.87;;;9.87;;
20114;SDS011;10218;42.874;25.320;2023-06-04T14:16:28;12.30;;;9.90;;
20114;SDS011;10218;42.874;25.320;2023-06-04T14:18:55;15.03;;;10.57;;
20114;SDS011;10218;42.874;25.320;2023-06-04T14:21:22;14.20;;;10.10;;
20114;SDS011;10218;42.874;25.320;2023-06-04T14:23:49;13.63;;;10.43;;
20114;SDS011;10218;42.874;25.320;2023-06-04T14:26:17;15.80;;;10.60;;
20114;SDS011;10218;42.874;25.320;2023-06-04T14:28:44;14.53;;;10.93;;
20114;SDS011;10218;42.874;25.320;2023-06-04T14:31:11;13.13;;;10.77;;
20114;SDS011;10218;42.874;25.320;2023-06-04T14:33:39;11.77;;;10.03;;
20114;SDS011;10218;42.874;25.320;2023-06-04T14:36:06;13.77;;;11.37;;
20114;SDS011;10218;42.874;25.320;2023-06-04T14:38:33;14.10;;;10.43;;